sensor_id;sensor_type;location;lat;lon;timestamp;pressure;altitude;pressure_sealevel;temperature;humidity
22938;BME280;11634;42.734;23.298;2022-12-29T00:01:33;96116.09;;;5.39;100.00
22938;BME280;11634;42.734;23.298;2022-12-29T00:04:01;96071.81;;;5.31;100.00
22938;BME280;11634;42.734;23.298;2022-12-29T00:06:28;96116.34;;;5.50;100.00
22938;BME280;11634;42.734;23.298;2022-12-29T00:08:53;96144.50;;;5.70;100.00
22938;BME280;11634;42.734;23.298;2022-12-29T00:11:24;96111.66;;;5.41;100.00
22938;BME280;11634;42.734;23.298;2022-12-29T00:13:52;96146.22;;;5.69;100.00
22938;BME280;11634;42.734;23.298;2022-12-29T00:16:45;96120.91;;;5.45;100.00
22938;BME280;11634;42.734;23.298;2022-12-29T00:19:12;96115.25;;;5.54;100.00
22938;BME280;11634;42.734;23.298;2022-12-29T00:21:57;96130.16;;;5.34;100.00
22938;BME280;11634;42.734;23.298;2022-12-29T00:24:43;96147.88;;;5.40;100.00
22938;BME280;11634;42.734;23.298;2022-12-29T00:27:31;96100.75;;;5.05;100.00
22938;BME280;11634;42.734;23.298;2022-12-29T00:30:19;96157.19;;;5.27;100.00
22938;BME280;11634;42.734;23.298;2022-12-29T00:33:16;96117.13;;;5.04;100.00
22938;BME280;11634;42.734;23.298;2022-12-29T00:36:11;96140.03;;;5.26;100.00
22938;BME280;11634;42.734;23.298;2022-12-29T00:38:45;96142.47;;;5.29;100.00
22938;BME280;11634;42.734;23.298;2022-12-29T00:41:30;96140.72;;;5.29;100.00
22938;BME280;11634;42.734;23.298;2022-12-29T00:44:14;96133.72;;;5.31;100.00
22938;BME280;11634;42.734;23.298;2022-12-29T00:46:41;96145.22;;;5.41;100.00
22938;BME280;11634;42.734;23.298;2022-12-29T00:49:09;96146.97;;;5.41;100.00
22938;BME280;11634;42.734;23.298;2022-12-29T00:52:03;96146.72;;;5.45;100.00
22938;BME280;11634;42.734;23.298;2022-12-29T00:54:35;96145.38;;;5.38;100.00
22938;BME280;11634;42.734;23.298;2022-12-29T00:57:02;96103.59;;;5.16;100.00
22938;BME280;11634;42.734;23.298;2022-12-29T00:59:29;96156.38;;;5.42;100.00
22938;BME280;11634;42.734;23.298;2022-12-29T01:01:56;96137.47;;;5.26;100.00
22938;BME280;11634;42.734;23.298;2022-12-29T01:04:23;96141.97;;;5.38;100.00
22938;BME280;11634;42.734;23.298;2022-12-29T01:06:49;96152.66;;;5.47;100.00
22938;BME280;11634;42.734;23.298;2022-12-29T01:09:15;96145.34;;;5.55;100.00
22938;BME280;11634;42.734;23.298;2022-12-29T01:12:00;96160.22;;;5.50;100.00
22938;BME280;11634;42.734;23.298;2022-12-29T01:14:26;96146.25;;;5.54;100.00
22938;BME280;11634;42.734;23.298;2022-12-29T01:16:53;96145.47;;;5.52;100.00
22938;BME280;11634;42.734;23.298;2022-12-29T01:19:19;96109.50;;;5.34;100.00
22938;BME280;11634;42.734;23.298;2022-12-29T01:21:46;96098.28;;;5.35;100.00
22938;BME280;11634;42.734;23.298;2022-12-29T01:24:13;96133.91;;;5.43;100.00
22938;BME280;11634;42.734;23.298;2022-12-29T01:26:39;96140.25;;;5.53;100.00
22938;BME280;11634;42.734;23.298;2022-12-29T01:29:04;96130.66;;;5.40;100.00
22938;BME280;11634;42.734;23.298;2022-12-29T01:31:30;96110.41;;;5.33;100.00
22938;BME280;11634;42.734;23.298;2022-12-29T01:33:55;96123.50;;;5.45;100.00
22938;BME280;11634;42.734;23.298;2022-12-29T01:36:21;96110.94;;;5.39;100.00
22938;BME280;11634;42.734;23.298;2022-12-29T01:38:48;96095.38;;;5.25;100.00
22938;BME280;11634;42.734;23.298;2022-12-29T01:41:16;96102.75;;;5.31;100.00
22938;BME280;11634;42.734;23.298;2022-12-29T01:49:20;96098.25;;;5.19;100.00
22938;BME280;11634;42.734;23.298;2022-12-29T01:51:58;96099.59;;;5.26;100.00
22938;BME280;11634;42.734;23.298;2022-12-29T01:54:37;96093.09;;;5.19;100.00
22938;BME280;11634;42.734;23.298;2022-12-29T01:57:09;96094.75;;;5.20;100.00
22938;BME280;11634;42.734;23.298;2022-12-29T01:59:42;96094.75;;;5.20;100.00
22938;BME280;11634;42.734;23.298;2022-12-29T02:02:10;96082.13;;;5.16;100.00
22938;BME280;11634;42.734;23.298;2022-12-29T02:04:38;96068.97;;;5.20;100.00
22938;BME280;11634;42.734;23.298;2022-12-29T02:07:11;96060.81;;;5.12;100.00
22938;BME280;11634;42.734;23.298;2022-12-29T02:09:39;96034.59;;;4.89;100.00
22938;BME280;11634;42.734;23.298;2022-12-29T02:12:06;96070.66;;;5.21;100.00
22938;BME280;11634;42.734;23.298;2022-12-29T02:14:33;96059.38;;;5.22;100.00
22938;BME280;11634;42.734;23.298;2022-12-29T02:17:18;96085.38;;;5.35;100.00
22938;BME280;11634;42.734;23.298;2022-12-29T02:23:30;96094.03;;;5.34;100.00
22938;BME280;11634;42.734;23.298;2022-12-29T02:31:24;96091.28;;;5.21;100.00
22938;BME280;11634;42.734;23.298;2022-12-29T02:34:24;96095.25;;;5.11;100.00
22938;BME280;11634;42.734;23.298;2022-12-29T02:37:11;96098.06;;;5.07;100.00
22938;BME280;11634;42.734;23.298;2022-12-29T02:42:47;96108.41;;;5.22;100.00
22938;BME280;11634;42.734;23.298;2022-12-29T02:50:43;96102.00;;;5.14;100.00
22938;BME280;11634;42.734;23.298;2022-12-29T02:53:16;96125.38;;;5.11;100.00
22938;BME280;11634;42.734;23.298;2022-12-29T02:55:51;96111.66;;;5.10;100.00
22938;BME280;11634;42.734;23.298;2022-12-29T02:58:20;96065.34;;;4.77;100.00
22938;BME280;11634;42.734;23.298;2022-12-29T03:12:33;96102.50;;;5.05;100.00
22938;BME280;11634;42.734;23.298;2022-12-29T03:15:34;96097.72;;;4.97;100.00
22938;BME280;11634;42.734;23.298;2022-12-29T03:21:16;96080.97;;;4.74;100.00
22938;BME280;11634;42.734;23.298;2022-12-29T03:23:45;96072.22;;;4.76;100.00
22938;BME280;11634;42.734;23.298;2022-12-29T03:26:16;96070.72;;;4.72;100.00
22938;BME280;11634;42.734;23.298;2022-12-29T03:28:52;96077.38;;;4.76;100.00
22938;BME280;11634;42.734;23.298;2022-12-29T03:31:24;96065.44;;;4.58;100.00
22938;BME280;11634;42.734;23.298;2022-12-29T03:33:53;96080.44;;;4.67;100.00
22938;BME280;11634;42.734;23.298;2022-12-29T03:36:28;96084.63;;;4.70;100.00
22938;BME280;11634;42.734;23.298;2022-12-29T03:39:16;96050.56;;;4.48;100.00
22938;BME280;11634;42.734;23.298;2022-12-29T03:41:45;96079.41;;;4.54;100.00
22938;BME280;11634;42.734;23.298;2022-12-29T03:44:12;96011.72;;;4.02;100.00
22938;BME280;11634;42.734;23.298;2022-12-29T03:46:38;96044.97;;;4.23;100.00
22938;BME280;11634;42.734;23.298;2022-12-29T03:49:04;96053.56;;;4.24;100.00
22938;BME280;11634;42.734;23.298;2022-12-29T03:51:29;96079.81;;;4.30;100.00
22938;BME280;11634;42.734;23.298;2022-12-29T03:53:56;96047.09;;;4.15;100.00
22938;BME280;11634;42.734;23.298;2022-12-29T03:56:21;96015.44;;;3.96;100.00
22938;BME280;11634;42.734;23.298;2022-12-29T03:58:48;96066.63;;;4.19;100.00
22938;BME280;11634;42.734;23.298;2022-12-29T04:01:19;96060.06;;;4.14;100.00
22938;BME280;11634;42.734;23.298;2022-12-29T04:03:44;96069.13;;;4.21;100.00
22938;BME280;11634;42.734;23.298;2022-12-29T04:06:10;96067.56;;;4.18;100.00
22938;BME280;11634;42.734;23.298;2022-12-29T04:08:45;96060.50;;;4.22;100.00
22938;BME280;11634;42.734;23.298;2022-12-29T04:11:11;96048.97;;;4.29;100.00
22938;BME280;11634;42.734;23.298;2022-12-29T04:13:37;96034.84;;;4.20;100.00
22938;BME280;11634;42.734;23.298;2022-12-29T04:16:08;96011.97;;;3.97;100.00
22938;BME280;11634;42.734;23.298;2022-12-29T04:18:34;96055.66;;;4.32;100.00
22938;BME280;11634;42.734;23.298;2022-12-29T04:21:00;96006.59;;;4.02;100.00
22938;BME280;11634;42.734;23.298;2022-12-29T04:23:28;96042.09;;;4.29;100.00
22938;BME280;11634;42.734;23.298;2022-12-29T04:25:54;96018.41;;;4.23;100.00
22938;BME280;11634;42.734;23.298;2022-12-29T04:28:19;96065.09;;;4.49;100.00
22938;BME280;11634;42.734;23.298;2022-12-29T04:31:08;96073.75;;;4.48;100.00
22938;BME280;11634;42.734;23.298;2022-12-29T04:33:36;96067.88;;;4.29;100.00
22938;BME280;11634;42.734;23.298;2022-12-29T04:36:02;96075.56;;;4.46;100.00
22938;BME280;11634;42.734;23.298;2022-12-29T04:38:28;96039.38;;;4.32;100.00
22938;BME280;11634;42.734;23.298;2022-12-29T04:40:54;96027.19;;;4.19;100.00
22938;BME280;11634;42.734;23.298;2022-12-29T04:43:22;96044.88;;;4.41;100.00
22938;BME280;11634;42.734;23.298;2022-12-29T04:46:07;96086.84;;;4.60;100.00
22938;BME280;11634;42.734;23.298;2022-12-29T04:48:47;96040.38;;;4.45;100.00
22938;BME280;11634;42.734;23.298;2022-12-29T04:51:25;96086.13;;;4.74;100.00
22938;BME280;11634;42.734;23.298;2022-12-29T04:53:50;96092.94;;;4.75;100.00
22938;BME280;11634;42.734;23.298;2022-12-29T04:56:16;96089.63;;;4.73;100.00
22938;BME280;11634;42.734;23.298;2022-12-29T04:58:42;96103.38;;;4.88;100.00
22938;BME280;11634;42.734;23.298;2022-12-29T05:01:07;96115.47;;;5.03;100.00
22938;BME280;11634;42.734;23.298;2022-12-29T05:03:33;96119.13;;;4.99;100.00
22938;BME280;11634;42.734;23.298;2022-12-29T05:05:59;96129.03;;;5.07;100.00
22938;BME280;11634;42.734;23.298;2022-12-29T05:08:24;96120.91;;;5.14;100.00
22938;BME280;11634;42.734;23.298;2022-12-29T05:10:51;96114.41;;;5.07;100.00
22938;BME280;11634;42.734;23.298;2022-12-29T05:13:18;96112.81;;;5.05;100.00
22938;BME280;11634;42.734;23.298;2022-12-29T05:15:52;96145.72;;;5.32;100.00
22938;BME280;11634;42.734;23.298;2022-12-29T05:18:19;96155.06;;;5.35;100.00
22938;BME280;11634;42.734;23.298;2022-12-29T05:20:45;96152.56;;;5.33;100.00
22938;BME280;11634;42.734;23.298;2022-12-29T05:23:11;96147.41;;;5.33;100.00
22938;BME280;11634;42.734;23.298;2022-12-29T05:25:37;96155.41;;;5.44;100.00
22938;BME280;11634;42.734;23.298;2022-12-29T05:28:16;96148.13;;;5.50;100.00
22938;BME280;11634;42.734;23.298;2022-12-29T05:30:49;96141.41;;;5.48;100.00
22938;BME280;11634;42.734;23.298;2022-12-29T05:33:17;96162.88;;;5.48;100.00
22938;BME280;11634;42.734;23.298;2022-12-29T05:35:43;96103.06;;;5.10;100.00
22938;BME280;11634;42.734;23.298;2022-12-29T05:38:09;96166.03;;;5.38;100.00
22938;BME280;11634;42.734;23.298;2022-12-29T05:40:35;96167.78;;;5.38;100.00
22938;BME280;11634;42.734;23.298;2022-12-29T05:43:06;96149.97;;;5.33;100.00
22938;BME280;11634;42.734;23.298;2022-12-29T05:46:07;96097.44;;;5.03;100.00
22938;BME280;11634;42.734;23.298;2022-12-29T05:48:45;96162.63;;;5.53;100.00
22938;BME280;11634;42.734;23.298;2022-12-29T05:55:11;96184.47;;;5.63;100.00
22938;BME280;11634;42.734;23.298;2022-12-29T05:57:38;96169.88;;;5.46;100.00
22938;BME280;11634;42.734;23.298;2022-12-29T06:00:10;96163.53;;;5.52;100.00
22938;BME280;11634;42.734;23.298;2022-12-29T06:02:43;96170.47;;;5.67;100.00
22938;BME280;11634;42.734;23.298;2022-12-29T06:05:08;96169.22;;;5.58;100.00
22938;BME280;11634;42.734;23.298;2022-12-29T06:07:36;96190.72;;;5.59;100.00
22938;BME280;11634;42.734;23.298;2022-12-29T06:10:05;96187.88;;;5.63;100.00
22938;BME280;11634;42.734;23.298;2022-12-29T06:12:35;96176.88;;;5.60;100.00
22938;BME280;11634;42.734;23.298;2022-12-29T06:15:00;96152.47;;;5.35;100.00
22938;BME280;11634;42.734;23.298;2022-12-29T06:17:27;96188.28;;;5.56;100.00
22938;BME280;11634;42.734;23.298;2022-12-29T06:19:53;96205.63;;;5.69;100.00
22938;BME280;11634;42.734;23.298;2022-12-29T06:22:19;96156.69;;;5.36;100.00
22938;BME280;11634;42.734;23.298;2022-12-29T06:24:45;96164.69;;;5.31;100.00
22938;BME280;11634;42.734;23.298;2022-12-29T06:27:11;96162.44;;;5.25;100.00
22938;BME280;11634;42.734;23.298;2022-12-29T06:29:39;96156.75;;;5.19;100.00
22938;BME280;11634;42.734;23.298;2022-12-29T06:32:07;96205.53;;;5.55;100.00
22938;BME280;11634;42.734;23.298;2022-12-29T06:34:33;96206.34;;;5.56;100.00
22938;BME280;11634;42.734;23.298;2022-12-29T06:36:58;96191.53;;;5.44;100.00
22938;BME280;11634;42.734;23.298;2022-12-29T06:39:24;96189.69;;;5.46;100.00
22938;BME280;11634;42.734;23.298;2022-12-29T06:42:02;96214.34;;;5.67;100.00
22938;BME280;11634;42.734;23.298;2022-12-29T06:44:55;96177.50;;;5.33;100.00
22938;BME280;11634;42.734;23.298;2022-12-29T06:47:23;96222.00;;;5.53;100.00
22938;BME280;11634;42.734;23.298;2022-12-29T06:49:49;96201.69;;;5.62;100.00
22938;BME280;11634;42.734;23.298;2022-12-29T06:52:15;96212.00;;;5.47;100.00
22938;BME280;11634;42.734;23.298;2022-12-29T06:54:40;96162.72;;;5.36;100.00
22938;BME280;11634;42.734;23.298;2022-12-29T06:57:06;96188.19;;;5.42;100.00
22938;BME280;11634;42.734;23.298;2022-12-29T06:59:32;96227.78;;;5.73;100.00
22938;BME280;11634;42.734;23.298;2022-12-29T07:01:58;96198.38;;;5.60;100.00
22938;BME280;11634;42.734;23.298;2022-12-29T07:04:25;96228.22;;;5.97;100.00
22938;BME280;11634;42.734;23.298;2022-12-29T07:06:51;96217.59;;;6.02;100.00
22938;BME280;11634;42.734;23.298;2022-12-29T07:09:16;96195.81;;;5.91;100.00
22938;BME280;11634;42.734;23.298;2022-12-29T07:11:42;96190.91;;;6.02;100.00
22938;BME280;11634;42.734;23.298;2022-12-29T07:14:07;96240.91;;;6.47;100.00
22938;BME280;11634;42.734;23.298;2022-12-29T07:16:33;96230.75;;;6.13;100.00
22938;BME280;11634;42.734;23.298;2022-12-29T07:18:59;96252.94;;;6.17;100.00
22938;BME280;11634;42.734;23.298;2022-12-29T07:21:25;96229.50;;;6.20;100.00
22938;BME280;11634;42.734;23.298;2022-12-29T07:23:51;96242.06;;;6.42;100.00
22938;BME280;11634;42.734;23.298;2022-12-29T07:26:16;96243.47;;;6.47;100.00
22938;BME280;11634;42.734;23.298;2022-12-29T07:28:45;96202.06;;;6.33;100.00
22938;BME280;11634;42.734;23.298;2022-12-29T07:31:21;96238.59;;;6.72;100.00
22938;BME280;11634;42.734;23.298;2022-12-29T07:33:47;96243.16;;;6.67;100.00
22938;BME280;11634;42.734;23.298;2022-12-29T07:36:14;96256.91;;;6.83;100.00
22938;BME280;11634;42.734;23.298;2022-12-29T07:38:40;96221.72;;;6.51;100.00
22938;BME280;11634;42.734;23.298;2022-12-29T07:41:06;96260.72;;;6.62;100.00
22938;BME280;11634;42.734;23.298;2022-12-29T07:43:33;96262.56;;;6.89;100.00
22938;BME280;11634;42.734;23.298;2022-12-29T07:46:18;96224.59;;;6.90;100.00
22938;BME280;11634;42.734;23.298;2022-12-29T07:48:45;96270.16;;;6.92;100.00
22938;BME280;11634;42.734;23.298;2022-12-29T07:51:11;96250.25;;;6.79;100.00
22938;BME280;11634;42.734;23.298;2022-12-29T07:53:37;96262.03;;;6.98;100.00
22938;BME280;11634;42.734;23.298;2022-12-29T07:56:03;96301.41;;;7.18;100.00
22938;BME280;11634;42.734;23.298;2022-12-29T07:58:28;96275.03;;;7.12;100.00
22938;BME280;11634;42.734;23.298;2022-12-29T08:00:55;96267.81;;;7.17;100.00
22938;BME280;11634;42.734;23.298;2022-12-29T08:03:21;96295.16;;;7.36;100.00
22938;BME280;11634;42.734;23.298;2022-12-29T08:05:47;96296.56;;;7.69;100.00
22938;BME280;11634;42.734;23.298;2022-12-29T08:08:12;96286.09;;;7.57;100.00
22938;BME280;11634;42.734;23.298;2022-12-29T08:10:38;96307.03;;;7.68;100.00
22938;BME280;11634;42.734;23.298;2022-12-29T08:13:03;96242.13;;;7.28;100.00
22938;BME280;11634;42.734;23.298;2022-12-29T08:15:29;96283.22;;;7.48;100.00
22938;BME280;11634;42.734;23.298;2022-12-29T08:17:56;96251.13;;;7.50;100.00
22938;BME280;11634;42.734;23.298;2022-12-29T08:20:21;96304.44;;;7.68;100.00
22938;BME280;11634;42.734;23.298;2022-12-29T08:22:48;96303.59;;;7.54;100.00
22938;BME280;11634;42.734;23.298;2022-12-29T08:25:14;96297.75;;;7.64;100.00
22938;BME280;11634;42.734;23.298;2022-12-29T08:27:39;96283.16;;;7.77;100.00
22938;BME280;11634;42.734;23.298;2022-12-29T08:30:05;96291.56;;;7.80;100.00
22938;BME280;11634;42.734;23.298;2022-12-29T08:32:31;96302.50;;;8.13;100.00
22938;BME280;11634;42.734;23.298;2022-12-29T08:34:57;96305.38;;;7.95;100.00
22938;BME280;11634;42.734;23.298;2022-12-29T08:37:22;96310.53;;;8.09;100.00
22938;BME280;11634;42.734;23.298;2022-12-29T08:39:48;96302.31;;;7.88;100.00
22938;BME280;11634;42.734;23.298;2022-12-29T08:42:13;96293.53;;;7.91;100.00
22938;BME280;11634;42.734;23.298;2022-12-29T08:44:39;96315.06;;;7.91;100.00
22938;BME280;11634;42.734;23.298;2022-12-29T08:47:04;96309.53;;;8.11;100.00
22938;BME280;11634;42.734;23.298;2022-12-29T08:49:30;96306.59;;;8.31;100.00
22938;BME280;11634;42.734;23.298;2022-12-29T08:51:58;96318.50;;;8.33;100.00
22938;BME280;11634;42.734;23.298;2022-12-29T08:54:24;96294.13;;;8.36;100.00
22938;BME280;11634;42.734;23.298;2022-12-29T08:56:49;96316.56;;;8.37;100.00
22938;BME280;11634;42.734;23.298;2022-12-29T08:59:15;96281.41;;;8.19;100.00
22938;BME280;11634;42.734;23.298;2022-12-29T09:01:42;96284.41;;;8.79;100.00
22938;BME280;11634;42.734;23.298;2022-12-29T09:04:08;96289.16;;;8.73;100.00
22938;BME280;11634;42.734;23.298;2022-12-29T09:06:34;96307.41;;;8.98;100.00
22938;BME280;11634;42.734;23.298;2022-12-29T09:08:59;96309.31;;;9.08;100.00
22938;BME280;11634;42.734;23.298;2022-12-29T09:11:25;96307.09;;;9.02;100.00
22938;BME280;11634;42.734;23.298;2022-12-29T09:13:52;96294.19;;;9.15;100.00
22938;BME280;11634;42.734;23.298;2022-12-29T09:16:18;96301.56;;;8.68;100.00
22938;BME280;11634;42.734;23.298;2022-12-29T09:18:44;96284.22;;;8.42;100.00
22938;BME280;11634;42.734;23.298;2022-12-29T09:21:11;96287.63;;;8.57;100.00
22938;BME280;11634;42.734;23.298;2022-12-29T09:23:37;96284.91;;;8.84;100.00
22938;BME280;11634;42.734;23.298;2022-12-29T09:26:03;96246.78;;;8.72;100.00
22938;BME280;11634;42.734;23.298;2022-12-29T09:28:29;96286.66;;;9.10;100.00
22938;BME280;11634;42.734;23.298;2022-12-29T09:30:56;96241.50;;;8.48;100.00
22938;BME280;11634;42.734;23.298;2022-12-29T09:33:22;96297.41;;;8.92;100.00
22938;BME280;11634;42.734;23.298;2022-12-29T09:35:56;96284.59;;;9.15;100.00
22938;BME280;11634;42.734;23.298;2022-12-29T09:38:23;96300.97;;;9.29;100.00
22938;BME280;11634;42.734;23.298;2022-12-29T09:40:51;96293.09;;;9.05;100.00
22938;BME280;11634;42.734;23.298;2022-12-29T09:46:25;96277.13;;;9.11;100.00
22938;BME280;11634;42.734;23.298;2022-12-29T09:51:39;96258.31;;;9.20;100.00
22938;BME280;11634;42.734;23.298;2022-12-29T09:54:35;96266.03;;;9.33;100.00
22938;BME280;11634;42.734;23.298;2022-12-29T09:57:02;96253.13;;;9.20;100.00
22938;BME280;11634;42.734;23.298;2022-12-29T09:59:39;96251.91;;;9.37;100.00
22938;BME280;11634;42.734;23.298;2022-12-29T10:02:15;96263.94;;;9.26;100.00
22938;BME280;11634;42.734;23.298;2022-12-29T10:04:44;96257.94;;;9.50;100.00
22938;BME280;11634;42.734;23.298;2022-12-29T10:10:31;96268.34;;;10.12;100.00
22938;BME280;11634;42.734;23.298;2022-12-29T10:13:07;96262.47;;;10.34;100.00
22938;BME280;11634;42.734;23.298;2022-12-29T10:16:09;96243.50;;;10.08;100.00
22938;BME280;11634;42.734;23.298;2022-12-29T10:24:15;96257.88;;;10.37;100.00
22938;BME280;11634;42.734;23.298;2022-12-29T10:26:43;96269.59;;;10.55;100.00
22938;BME280;11634;42.734;23.298;2022-12-29T10:29:14;96248.59;;;10.69;100.00
22938;BME280;11634;42.734;23.298;2022-12-29T10:31:46;96239.25;;;10.31;100.00
22938;BME280;11634;42.734;23.298;2022-12-29T10:34:44;96250.59;;;10.42;100.00
22938;BME280;11634;42.734;23.298;2022-12-29T10:37:32;96256.31;;;10.70;100.00
22938;BME280;11634;42.734;23.298;2022-12-29T10:40:03;96165.03;;;10.14;100.00
22938;BME280;11634;42.734;23.298;2022-12-29T10:42:41;96239.63;;;9.89;100.00
22938;BME280;11634;42.734;23.298;2022-12-29T10:45:18;96245.03;;;9.86;100.00
22938;BME280;11634;42.734;23.298;2022-12-29T10:48:06;96211.53;;;9.94;100.00
22938;BME280;11634;42.734;23.298;2022-12-29T10:50:34;96159.63;;;9.57;100.00
22938;BME280;11634;42.734;23.298;2022-12-29T10:53:03;96220.13;;;10.32;100.00
22938;BME280;11634;42.734;23.298;2022-12-29T10:55:35;96218.09;;;10.47;100.00
22938;BME280;11634;42.734;23.298;2022-12-29T10:58:06;96211.09;;;10.71;100.00
22938;BME280;11634;42.734;23.298;2022-12-29T11:00:32;96213.34;;;10.99;100.00
22938;BME280;11634;42.734;23.298;2022-12-29T11:05:49;96218.56;;;10.99;100.00
22938;BME280;11634;42.734;23.298;2022-12-29T11:08:23;96205.94;;;10.82;100.00
22938;BME280;11634;42.734;23.298;2022-12-29T11:11:22;96206.00;;;11.04;100.00
22938;BME280;11634;42.734;23.298;2022-12-29T11:14:02;96208.34;;;11.19;100.00
22938;BME280;11634;42.734;23.298;2022-12-29T11:16:30;96208.81;;;11.35;100.00
22938;BME280;11634;42.734;23.298;2022-12-29T11:18:56;96207.13;;;11.12;100.00
22938;BME280;11634;42.734;23.298;2022-12-29T11:21:34;96193.34;;;10.99;100.00
22938;BME280;11634;42.734;23.298;2022-12-29T11:24:19;96185.16;;;10.93;100.00
22938;BME280;11634;42.734;23.298;2022-12-29T11:26:49;96196.31;;;11.06;100.00
22938;BME280;11634;42.734;23.298;2022-12-29T11:29:23;96199.25;;;10.67;100.00
22938;BME280;11634;42.734;23.298;2022-12-29T11:31:57;96176.06;;;10.41;100.00
22938;BME280;11634;42.734;23.298;2022-12-29T11:34:32;96191.03;;;10.37;100.00
22938;BME280;11634;42.734;23.298;2022-12-29T11:37:39;96190.25;;;10.01;100.00
22938;BME280;11634;42.734;23.298;2022-12-29T11:40:19;96130.97;;;9.46;100.00
22938;BME280;11634;42.734;23.298;2022-12-29T11:42:51;96175.63;;;9.76;100.00
22938;BME280;11634;42.734;23.298;2022-12-29T11:45:23;96127.19;;;9.62;100.00
22938;BME280;11634;42.734;23.298;2022-12-29T11:48:15;96171.06;;;9.54;100.00
22938;BME280;11634;42.734;23.298;2022-12-29T11:50:49;96157.84;;;9.57;100.00
22938;BME280;11634;42.734;23.298;2022-12-29T11:53:22;96117.00;;;9.47;100.00
22938;BME280;11634;42.734;23.298;2022-12-29T11:55:57;96107.13;;;9.52;100.00
22938;BME280;11634;42.734;23.298;2022-12-29T11:58:36;96141.09;;;9.74;100.00
22938;BME280;11634;42.734;23.298;2022-12-29T12:04:34;96144.03;;;9.57;100.00
22938;BME280;11634;42.734;23.298;2022-12-29T12:07:33;96146.63;;;9.69;100.00
22938;BME280;11634;42.734;23.298;2022-12-29T12:09:35;96125.41;;;9.63;100.00
22938;BME280;11634;42.734;23.298;2022-12-29T12:12:03;96142.53;;;9.78;100.00
22938;BME280;11634;42.734;23.298;2022-12-29T12:14:35;96133.69;;;9.80;100.00
22938;BME280;11634;42.734;23.298;2022-12-29T12:17:37;96134.22;;;9.85;100.00
22938;BME280;11634;42.734;23.298;2022-12-29T12:25:37;96138.19;;;10.14;100.00
22938;BME280;11634;42.734;23.298;2022-12-29T12:28:20;96125.13;;;10.03;100.00
22938;BME280;11634;42.734;23.298;2022-12-29T12:30:54;96080.59;;;9.72;100.00
22938;BME280;11634;42.734;23.298;2022-12-29T12:33:28;96120.53;;;9.94;100.00
22938;BME280;11634;42.734;23.298;2022-12-29T12:38:46;96097.69;;;9.99;100.00
22938;BME280;11634;42.734;23.298;2022-12-29T12:41:19;96112.88;;;10.16;100.00
22938;BME280;11634;42.734;23.298;2022-12-29T12:44:07;96128.22;;;10.08;100.00
22938;BME280;11634;42.734;23.298;2022-12-29T12:47:06;96098.53;;;9.87;100.00
22938;BME280;11634;42.734;23.298;2022-12-29T12:52:32;96118.06;;;9.92;100.00
22938;BME280;11634;42.734;23.298;2022-12-29T13:00:13;96108.88;;;9.64;100.00
22938;BME280;11634;42.734;23.298;2022-12-29T13:08:42;96101.28;;;9.73;100.00
22938;BME280;11634;42.734;23.298;2022-12-29T13:17:18;96107.00;;;9.66;100.00
22938;BME280;11634;42.734;23.298;2022-12-29T13:19:50;96102.84;;;9.63;100.00
22938;BME280;11634;42.734;23.298;2022-12-29T13:22:34;96109.53;;;9.55;100.00
22938;BME280;11634;42.734;23.298;2022-12-29T13:25:42;96106.09;;;9.54;100.00
22938;BME280;11634;42.734;23.298;2022-12-29T13:28:41;96102.28;;;9.47;100.00
22938;BME280;11634;42.734;23.298;2022-12-29T13:31:15;96106.44;;;9.50;100.00
22938;BME280;11634;42.734;23.298;2022-12-29T13:36:45;96097.56;;;9.52;100.00
22938;BME280;11634;42.734;23.298;2022-12-29T13:39:23;96099.84;;;9.69;100.00
22938;BME280;11634;42.734;23.298;2022-12-29T13:41:55;96109.06;;;9.73;100.00
22938;BME280;11634;42.734;23.298;2022-12-29T13:47:02;96119.09;;;9.90;100.00
22938;BME280;11634;42.734;23.298;2022-12-29T13:49:33;96118.25;;;10.02;100.00
22938;BME280;11634;42.734;23.298;2022-12-29T13:57:45;96122.69;;;10.36;100.00
22938;BME280;11634;42.734;23.298;2022-12-29T14:00:22;96098.22;;;10.38;100.00
22938;BME280;11634;42.734;23.298;2022-12-29T14:03:23;96127.63;;;10.62;100.00
22938;BME280;11634;42.734;23.298;2022-12-29T14:06:15;96130.81;;;10.54;100.00
22938;BME280;11634;42.734;23.298;2022-12-29T14:08:42;96125.84;;;10.51;100.00
22938;BME280;11634;42.734;23.298;2022-12-29T14:11:12;96139.28;;;10.45;100.00
22938;BME280;11634;42.734;23.298;2022-12-29T14:13:42;96109.59;;;10.14;100.00
22938;BME280;11634;42.734;23.298;2022-12-29T14:16:24;96082.56;;;10.04;100.00
22938;BME280;11634;42.734;23.298;2022-12-29T14:18:50;96116.88;;;10.32;100.00
22938;BME280;11634;42.734;23.298;2022-12-29T14:23:43;96134.59;;;10.27;100.00
22938;BME280;11634;42.734;23.298;2022-12-29T14:28:42;96131.53;;;10.10;100.00
22938;BME280;11634;42.734;23.298;2022-12-29T14:33:39;96121.69;;;10.02;100.00
22938;BME280;11634;42.734;23.298;2022-12-29T14:36:27;96106.66;;;9.82;100.00
22938;BME280;11634;42.734;23.298;2022-12-29T14:38:59;96115.09;;;9.74;100.00
22938;BME280;11634;42.734;23.298;2022-12-29T14:41:38;96089.88;;;9.51;100.00
22938;BME280;11634;42.734;23.298;2022-12-29T14:49:23;96117.44;;;9.53;100.00
22938;BME280;11634;42.734;23.298;2022-12-29T14:52:03;96110.47;;;9.41;100.00
22938;BME280;11634;42.734;23.298;2022-12-29T14:57:04;96082.56;;;9.08;100.00
22938;BME280;11634;42.734;23.298;2022-12-29T14:59:54;96115.38;;;9.33;100.00
22938;BME280;11634;42.734;23.298;2022-12-29T15:02:23;96077.19;;;9.11;100.00
22938;BME280;11634;42.734;23.298;2022-12-29T15:04:50;96116.81;;;9.37;100.00
22938;BME280;11634;42.734;23.298;2022-12-29T15:07:18;96106.75;;;9.33;100.00
22938;BME280;11634;42.734;23.298;2022-12-29T15:09:46;96108.09;;;9.38;100.00